Estación Meteorológica Peña el Pijo (Robertgarden) [ 09/25/17 15:14:53 CEST ]

Fecha Hora Presion(HPa) Temp (°C) Humedad % Rocio (°C) Viento ( m/s) Direccion Lluvia 1Hora(mm) Lluvia 24H(mm) LLuvia Total(mm)
2017-Jun-12 01:01:52 1012.500 14.4 61 7.0         1427.09
2017-Jun-12 02:01:43 1012.600 13.3 66 7.1         1427.09
2017-Jun-12 03:01:44 1012.100 12.4 69 6.9         1427.09
2017-Jun-12 04:01:39 1011.900 11.8 71 6.7         1427.09
2017-Jun-12 05:01:40 1011.500 11.0 73 6.4         1427.09
2017-Jun-12 06:01:35 1011.400 10.5 74 6.1         1427.09
2017-Jun-12 07:01:35 1011.500 9.9 76 5.8         1427.09
2017-Jun-12 08:01:50 1011.600 13.7 77 9.7         1427.09
2017-Jun-12 09:01:40 1011.500 20.9 56 11.8         1427.09
2017-Jun-12 10:01:46 1011.400 26.3 35 9.5         1427.09
2017-Jun-12 11:01:41 1011.400 29.1 26 7.4         1427.09
2017-Jun-12 12:01:51 1011.600 30.8 24 7.7         1427.09
2017-Jun-12 13:01:42 1011.700 31.9 24 8.6         1427.09
2017-Jun-12 14:02:03 1011.300 31.8 25 9.1 2.8 S     1427.09
2017-Jun-12 15:01:47 1010.900 32.1 24 8.8         1427.09
2017-Jun-12 16:01:47 1010.400 31.8 24 8.5         1427.09
2017-Jun-12 17:01:52 1010.000 32.2 25 9.5         1427.09
2017-Jun-12 18:01:49 1010.000 31.4 28 10.6         1427.09
2017-Jun-12 19:01:45 1009.700 29.4 30 10.1         1427.09
2017-Jun-12 20:01:47 1009.400 27.3 34 10.0         1427.09
2017-Jun-12 21:01:54 1009.800 24.2 39 9.4         1427.09
2017-Jun-12 22:01:47 1010.100 21.5 46 9.3         1427.09
2017-Jun-12 23:01:48 1010.300 20.2 51 9.8         1427.09

Temperatura Máxima:32°    Temperatura Mínima:
Presión Máxima:1012.600 Hpa    Presión Mínima:1009.400 Hpa


Volver